^^
Lisbon, NH - Weather Station Historical Data
Daily Summary for March 27, 2021 Units:  English    Metric   Both
Daily Weekly Monthly Yearly
  High: Low: Average:
Temperature: 48.2 °F 31.1 °F 40.6 °F
Dew Point: 35.8 °F 29.3 °F 32.2 °F
Humidity: 93% 49.8% 73%
Wind Speed: 0mph 0mph 0mph
Wind Gust: 0mph - -
Wind- - North
Pressure: 30.15 in 29.76 in -
Precipitation: 0.00 in    
 
 
Tabular Data for March 27, 2021
Time Temperature Dew Point Pressure Wind Wind Speed Wind Gust Humidity Rainfall Rate (Hourly) solar
00:04 40.6 °F 35.5 °F 29.76 in Calm     82% 0.00 in 0 W/m2
00:09 40.4 °F 35.3 °F 29.76 in Calm     82% 0.00 in 0 W/m2
00:14 40.4 °F 35.3 °F 29.76 in Calm     82% 0.00 in 0 W/m2
00:19 40.4 °F 35.6 °F 29.76 in Calm     82.8% 0.00 in 0 W/m2
00:24 40.4 °F 35.8 °F 29.76 in Calm     83.5% 0.00 in 0 W/m2
00:29 40.3 °F 35.8 °F 29.78 in Calm     84% 0.00 in 0 W/m2
00:34 40 °F 35.6 °F 29.78 in Calm     84% 0.00 in 0 W/m2
00:39 39.8 °F 35.5 °F 29.78 in Calm     84.4% 0.00 in 0 W/m2
00:44 39.7 °F 35.5 °F 29.80 in Calm     84.8% 0.00 in 0 W/m2
00:49 39.6 °F 35.2 °F 29.80 in Calm     84% 0.00 in 0 W/m2
00:54 39.4 °F 34.8 °F 29.80 in Calm     83.3% 0.00 in 0 W/m2
00:59 39.4 °F 34.7 °F 29.81 in Calm     83% 0.00 in 0 W/m2
01:04 39.4 °F 34.9 °F 29.81 in Calm     83.8% 0.00 in 0 W/m2
01:09 39.3 °F 34.9 °F 29.81 in Calm     84% 0.00 in 0 W/m2
01:14 39.3 °F 35.2 °F 29.82 in Calm     84.9% 0.00 in 0 W/m2
01:19 39.2 °F 35.1 °F 29.82 in Calm     84.9% 0.00 in 0 W/m2
01:24 39.1 °F 34.8 °F 29.82 in Calm     84.3% 0.00 in 0 W/m2
01:29 39.1 °F 34.7 °F 29.83 in Calm     84.1% 0.00 in 0 W/m2
01:34 39.1 °F 35 °F 29.83 in Calm     85% 0.00 in 0 W/m2
01:39 39 °F 34.6 °F 29.83 in Calm     83.9% 0.00 in 0 W/m2
01:44 39 °F 34.5 °F 29.84 in Calm     83.9% 0.00 in 0 W/m2
01:49 38.8 °F 34.4 °F 29.84 in Calm     84% 0.00 in 0 W/m2
01:54 38.7 °F 34 °F 29.84 in Calm     83.2% 0.00 in 0 W/m2
01:59 38.6 °F 33.9 °F 29.85 in Calm     83% 0.00 in 0 W/m2
02:04 38.6 °F 33.9 °F 29.85 in Calm     83% 0.00 in 0 W/m2
02:09 38.6 °F 33.9 °F 29.85 in Calm     83% 0.00 in 0 W/m2
02:14 38.5 °F 33.5 °F 29.87 in Calm     82% 0.00 in 0 W/m2
02:19 38.4 °F 32.9 °F 29.87 in Calm     80.5% 0.00 in 0 W/m2
02:24 38.3 °F 32.7 °F 29.87 in Calm     80% 0.00 in 0 W/m2
02:29 38.3 °F 32.7 °F 29.88 in Calm     80% 0.00 in 0 W/m2
02:34 38.1 °F 32.7 °F 29.88 in Calm     80.8% 0.00 in 0 W/m2
02:39 38.1 °F 32.8 °F 29.88 in Calm     81% 0.00 in 0 W/m2
02:44 38 °F 32.7 °F 29.89 in Calm     81% 0.00 in 0 W/m2
02:49 38 °F 32.7 °F 29.89 in Calm     81% 0.00 in 0 W/m2
02:54 37.8 °F 32.5 °F 29.89 in Calm     81% 0.00 in 0 W/m2
02:59 37.8 °F 32.5 °F 29.90 in Calm     81% 0.00 in 0 W/m2
03:04 37.7 °F 32.4 °F 29.90 in Calm     81% 0.00 in 0 W/m2
03:09 37.7 °F 32.2 °F 29.90 in Calm     80.2% 0.00 in 0 W/m2
03:14 37.7 °F 32.5 °F 29.91 in Calm     81.2% 0.00 in 0 W/m2
03:19 37.7 °F 32.4 °F 29.91 in Calm     81.2% 0.00 in 0 W/m2
03:24 37.6 °F 32.3 °F 29.91 in Calm     81% 0.00 in 0 W/m2
03:29 37.6 °F 32.6 °F 29.92 in Calm     81.9% 0.00 in 0 W/m2
03:34 37.6 °F 32.7 °F 29.92 in Calm     82.5% 0.00 in 0 W/m2
03:39 37.4 °F 32.4 °F 29.92 in Calm     82% 0.00 in 0 W/m2
03:44 37.4 °F 32.4 °F 29.92 in Calm     82% 0.00 in 0 W/m2
03:49 37.4 °F 32.5 °F 29.92 in Calm     82.1% 0.00 in 0 W/m2
03:54 37.3 °F 32.5 °F 29.92 in Calm     82.5% 0.00 in 0 W/m2
03:59 37.3 °F 32.3 °F 29.93 in Calm     82% 0.00 in 0 W/m2
04:04 37.3 °F 32.3 °F 29.93 in Calm     82% 0.00 in 0 W/m2
04:09 37.3 °F 32.3 °F 29.93 in Calm     82% 0.00 in 0 W/m2
04:14 37.3 °F 32.1 °F 29.94 in Calm     81.4% 0.00 in 0 W/m2
04:19 37.3 °F 32.1 °F 29.94 in Calm     81.4% 0.00 in 0 W/m2
04:24 37.1 °F 32.2 °F 29.94 in Calm     82% 0.00 in 0 W/m2
04:29 37.1 °F 32 °F 29.95 in Calm     81.7% 0.00 in 0 W/m2
04:34 37 °F 31.7 °F 29.95 in Calm     81% 0.00 in 0 W/m2
04:39 37 °F 31.8 °F 29.95 in Calm     81.2% 0.00 in 0 W/m2
04:44 37 °F 32 °F 29.96 in Calm     81.8% 0.00 in 0 W/m2
04:49 36.9 °F 31.7 °F 29.96 in Calm     81.2% 0.00 in 0 W/m2
04:54 36.8 °F 31.7 °F 29.96 in Calm     81.6% 0.00 in 0 W/m2
04:59 36.7 °F 31.8 °F 29.97 in Calm     82% 0.00 in 0 W/m2
05:04 36.7 °F 31.8 °F 29.97 in Calm     82.4% 0.00 in 0 W/m2
05:09 36.6 °F 31.8 °F 29.97 in Calm     82.5% 0.00 in 0 W/m2
05:14 36.5 °F 31.8 °F 29.97 in Calm     83% 0.00 in 0 W/m2
05:19 36.5 °F 31.8 °F 29.97 in Calm     83% 0.00 in 0 W/m2
05:24 36.5 °F 31.9 °F 29.97 in Calm     83.2% 0.00 in 0 W/m2
05:29 36.4 °F 32 °F 29.97 in Calm     84% 0.00 in 0 W/m2
05:34 36.4 °F 32 °F 29.97 in Calm     84% 0.00 in 0 W/m2
05:39 36.3 °F 32 °F 29.97 in Calm     84% 0.00 in 0 W/m2
05:44 36.3 °F 31.9 °F 29.98 in Calm     84% 0.00 in 0 W/m2
05:49 36.3 °F 31.9 °F 29.98 in Calm     84% 0.00 in 0 W/m2
05:54 36.3 °F 31.9 °F 29.98 in Calm     84% 0.00 in 0 W/m2
05:59 36.3 °F 31.9 °F 29.99 in Calm     84% 0.00 in 0 W/m2
06:04 36.3 °F 31.9 °F 29.99 in Calm     84% 0.00 in 0 W/m2
06:09 36.3 °F 32.2 °F 29.99 in Calm     84.7% 0.00 in 0 W/m2
06:14 36.2 °F 32.1 °F 29.99 in Calm     85% 0.00 in 0 W/m2
06:19 36.1 °F 32 °F 29.99 in Calm     85% 0.00 in 0 W/m2
06:24 36.1 °F 32 °F 29.99 in Calm     85% 0.00 in 0 W/m2
06:29 36.1 °F 32.1 °F 29.99 in Calm     85.2% 0.00 in 0 W/m2
06:34 36.1 °F 32.2 °F 29.99 in Calm     85.7% 0.00 in 0 W/m2
06:39 36.1 °F 32.3 °F 29.99 in Calm     85.8% 0.00 in 0 W/m2
06:44 36.1 °F 32.3 °F 30.00 in Calm     86% 0.00 in 0 W/m2
06:49 36 °F 32.3 °F 30.00 in Calm     86% 0.00 in 5 W/m2
06:54 36 °F 32.2 °F 30.00 in Calm     86% 0.00 in 5 W/m2
06:59 36 °F 32.2 °F 30.01 in Calm     86% 0.00 in 7 W/m2
07:04 36 °F 32.2 °F 30.01 in Calm     86% 0.00 in 9 W/m2
07:09 36 °F 32.2 °F 30.01 in Calm     86% 0.00 in 11 W/m2
07:14 36.1 °F 32.3 °F 30.02 in Calm     86% 0.00 in 16 W/m2
07:19 36.1 °F 32.3 °F 30.02 in Calm     86% 0.00 in 18 W/m2
07:24 36.1 °F 32.4 °F 30.02 in Calm     86.4% 0.00 in 21 W/m2
07:29 36.1 °F 32.7 °F 30.02 in Calm     87% 0.00 in 23 W/m2
07:34 36.3 °F 32.8 °F 30.02 in Calm     87% 0.00 in 25 W/m2
07:39 36.3 °F 33 °F 30.02 in Calm     87.6% 0.00 in 26 W/m2
07:44 36.3 °F 33.1 °F 30.03 in Calm     88% 0.00 in 35 W/m2
07:49 36.3 °F 33.1 °F 30.03 in Calm     88% 0.00 in 48 W/m2
07:54 36.3 °F 33.1 °F 30.03 in Calm     88% 0.00 in 79 W/m2
07:59 36.4 °F 33.2 °F 30.03 in Calm     88% 0.00 in 107 W/m2
08:04 36.5 °F 33.3 °F 30.03 in Calm     88% 0.00 in 91 W/m2
08:09 36.5 °F 33 °F 30.03 in Calm     86.9% 0.00 in 58 W/m2
08:14 36.5 °F 32.7 °F 30.05 in Calm     86% 0.00 in 55 W/m2
08:19 36.6 °F 32.5 °F 30.05 in Calm     85.1% 0.00 in 70 W/m2
08:24 36.7 °F 32.6 °F 30.05 in Calm     85% 0.00 in 81 W/m2
08:29 36.8 °F 32.6 °F 30.06 in Calm     84.3% 0.00 in 84 W/m2
08:34 37.1 °F 32.8 °F 30.06 in Calm     84.5% 0.00 in 83 W/m2
08:39 37.2 °F 32.6 °F 30.06 in Calm     83.1% 0.00 in 79 W/m2
08:44 37.4 °F 32.6 °F 30.07 in Calm     82.9% 0.00 in 77 W/m2
08:49 37.4 °F 32.4 °F 30.07 in Calm     81.9% 0.00 in 76 W/m2
08:54 37.6 °F 32.3 °F 30.07 in Calm     81% 0.00 in 77 W/m2
08:59 37.7 °F 32.4 °F 30.07 in Calm     80.9% 0.00 in 77 W/m2
09:04 37.8 °F 32.4 °F 30.07 in Calm     80.8% 0.00 in 84 W/m2
09:09 37.8 °F 32.3 °F 30.07 in Calm     80.2% 0.00 in 79 W/m2
09:14 37.8 °F 31.8 °F 30.08 in Calm     79% 0.00 in 95 W/m2
09:19 37.7 °F 31.8 °F 30.08 in Calm     78.9% 0.00 in 111 W/m2
09:24 37.7 °F 31.7 °F 30.08 in Calm     78.5% 0.00 in 132 W/m2
09:29 37.8 °F 31.7 °F 30.09 in Calm     78.6% 0.00 in 162 W/m2
09:34 37.9 °F 31.7 °F 30.09 in Calm     78% 0.00 in 192 W/m2
09:39 38.1 °F 31.8 °F 30.09 in Calm     78% 0.00 in 192 W/m2
09:44 38.4 °F 32.2 °F 30.10 in Calm     78.3% 0.00 in 194 W/m2
09:49 38.7 °F 32.6 °F 30.10 in Calm     78.5% 0.00 in 190 W/m2
09:54 39 °F 32.4 °F 30.10 in Calm     76.9% 0.00 in 178 W/m2
09:59 38.8 °F 31.9 °F 30.10 in Calm     75.9% 0.00 in 172 W/m2
10:04 38.8 °F 32 °F 30.10 in Calm     76.2% 0.00 in 227 W/m2
10:09 39 °F 32 °F 30.10 in Calm     75.6% 0.00 in 259 W/m2
10:14 39.4 °F 32.2 °F 30.10 in Calm     75% 0.00 in 252 W/m2
10:19 39.8 °F 32 °F 30.10 in Calm     73.5% 0.00 in 222 W/m2
10:24 40.2 °F 32.3 °F 30.10 in Calm     73.1% 0.00 in 218 W/m2
10:29 40.3 °F 32.3 °F 30.10 in Calm     72.8% 0.00 in 236 W/m2
10:34 40.3 °F 32.1 °F 30.10 in Calm     72.2% 0.00 in 252 W/m2
10:39 40.3 °F 32 °F 30.10 in Calm     72% 0.00 in 260 W/m2
10:44 40.2 °F 31.7 °F 30.10 in Calm     71.5% 0.00 in 257 W/m2
10:49 40.2 °F 32.1 °F 30.10 in Calm     72.8% 0.00 in 271 W/m2
10:54 40.7 °F 32.4 °F 30.10 in Calm     72.2% 0.00 in 241 W/m2
10:59 40.8 °F 32.1 °F 30.10 in Calm     71% 0.00 in 179 W/m2
11:04 40.8 °F 32 °F 30.10 in Calm     70.6% 0.00 in 181 W/m2
11:09 41.1 °F 32.7 °F 30.10 in Calm     71.9% 0.00 in 246 W/m2
11:14 41.3 °F 32.6 °F 30.10 in Calm     70.9% 0.00 in 301 W/m2
11:19 41.1 °F 31.8 °F 30.10 in Calm     69.2% 0.00 in 301 W/m2
11:24 41.6 °F 32.8 °F 30.10 in Calm     70.7% 0.00 in 301 W/m2
11:29 42.1 °F 32.8 °F 30.10 in Calm     69.4% 0.00 in 280 W/m2
11:34 42.2 °F 32.4 °F 30.10 in Calm     67.9% 0.00 in 992 W/m2
11:39 42.6 °F 33.1 °F 30.10 in Calm     68.7% 0.00 in 1063 W/m2
11:44 44 °F 33.8 °F 30.10 in Calm     67.2% 0.00 in 1050 W/m2
11:49 44 °F 33.1 °F 30.09 in Calm     65.2% 0.00 in 331 W/m2
11:54 43.5 °F 32.6 °F 30.09 in Calm     65.3% 0.00 in 289 W/m2
11:59 43.3 °F 32.2 °F 30.09 in Calm     64.6% 0.00 in 334 W/m2
12:04 43 °F 31.6 °F 30.09 in Calm     63.7% 0.00 in 334 W/m2
12:09 43 °F 31.8 °F 30.09 in Calm     64.4% 0.00 in 359 W/m2
12:14 43.1 °F 31 °F 30.09 in Calm     62.1% 0.00 in 461 W/m2
12:19 42.9 °F 30.7 °F 30.09 in Calm     61.7% 0.00 in 461 W/m2
12:24 43 °F 31.1 °F 30.09 in Calm     62.5% 0.00 in 354 W/m2
12:29 43.5 °F 31.2 °F 30.09 in Calm     61.6% 0.00 in 340 W/m2
12:34 43.4 °F 30.9 °F 30.08 in Calm     61% 0.00 in 371 W/m2
12:39 43.5 °F 31.3 °F 30.08 in Calm     62% 0.00 in 398 W/m2
12:44 43.9 °F 31.1 °F 30.08 in Calm     60.5% 0.00 in 398 W/m2
12:49 43.7 °F 30.8 °F 30.08 in Calm     60% 0.00 in 333 W/m2
12:54 43.7 °F 30.9 °F 30.08 in Calm     60.4% 0.00 in 348 W/m2
12:59 43.8 °F 30.6 °F 30.09 in Calm     59.5% 0.00 in 436 W/m2
13:04 43.1 °F 30.1 °F 30.09 in Calm     59.9% 0.00 in 475 W/m2
13:09 42.8 °F 30.2 °F 30.09 in Calm     60.6% 0.00 in 475 W/m2
13:14 43.2 °F 30.9 °F 30.10 in Calm     61.5% 0.00 in 310 W/m2
13:19 43.6 °F 30.8 °F 30.10 in Calm     60.2% 0.00 in 340 W/m2
13:24 44 °F 30.6 °F 30.10 in Calm     59.1% 0.00 in 341 W/m2
13:29 43.8 °F 30.8 °F 30.10 in Calm     59.9% 0.00 in 329 W/m2
13:34 43.9 °F 31 °F 30.09 in Calm     60.2% 0.00 in 368 W/m2
13:39 43.9 °F 31.1 °F 30.09 in Calm     60.2% 0.00 in 384 W/m2
13:44 43.8 °F 30.6 °F 30.09 in Calm     59.3% 0.00 in 357 W/m2
13:49 43.6 °F 30.7 °F 30.08 in Calm     60.2% 0.00 in 301 W/m2
13:54 43.7 °F 31 °F 30.08 in Calm     60.6% 0.00 in 320 W/m2
13:59 44 °F 31.1 °F 30.08 in Calm     60.3% 0.00 in 955 W/m2
14:04 44.6 °F 30.7 °F 30.08 in Calm     57.7% 0.00 in 952 W/m2
14:09 45.7 °F 31.4 °F 30.08 in Calm     57% 0.00 in 880 W/m2
14:14 46.6 °F 31.8 °F 30.08 in Calm     56% 0.00 in 862 W/m2
14:19 46.5 °F 31.8 °F 30.07 in Calm     56.3% 0.00 in 797 W/m2
14:24 47.1 °F 32.6 °F 30.07 in Calm     56.9% 0.00 in 783 W/m2
14:29 47.3 °F 31.5 °F 30.07 in Calm     53.9% 0.00 in 790 W/m2
14:34 47.1 °F 31.8 °F 30.07 in Calm     55% 0.00 in 790 W/m2
14:39 46.5 °F 31.6 °F 30.07 in Calm     55.8% 0.00 in 889 W/m2
14:44 46.7 °F 31.8 °F 30.08 in Calm     55.9% 0.00 in 262 W/m2
14:49 46.4 °F 31.4 °F 30.08 in Calm     55.6% 0.00 in 278 W/m2
14:54 46.2 °F 31 °F 30.08 in Calm     55% 0.00 in 304 W/m2
14:59 46 °F 30.6 °F 30.09 in Calm     54.7% 0.00 in 723 W/m2
15:04 46.5 °F 31.2 °F 30.09 in Calm     55% 0.00 in 723 W/m2
15:09 47.4 °F 31.9 °F 30.09 in Calm     54.6% 0.00 in 667 W/m2
15:14 48.1 °F 31.7 °F 30.09 in Calm     52.9% 0.00 in 526 W/m2
15:19 48.1 °F 31.2 °F 30.08 in Calm     51.6% 0.00 in 526 W/m2
15:24 48.1 °F 31.7 °F 30.08 in Calm     52.7% 0.00 in 315 W/m2
15:29 48.1 °F 31.1 °F 30.08 in Calm     51.5% 0.00 in 204 W/m2
15:34 48.2 °F 30.5 °F 30.08 in Calm     50.1% 0.00 in 422 W/m2
15:39 48.1 °F 30.3 °F 30.08 in Calm     49.8% 0.00 in 179 W/m2
15:44 47.7 °F 30.4 °F 30.08 in Calm     50.9% 0.00 in 399 W/m2
15:49 47.7 °F 30.4 °F 30.08 in Calm     51% 0.00 in 399 W/m2
15:54 47.4 °F 30 °F 30.08 in Calm     50.6% 0.00 in 162 W/m2
15:59 47.1 °F 30.3 °F 30.08 in Calm     51.6% 0.00 in 216 W/m2
16:04 47.2 °F 30.9 °F 30.08 in Calm     52.8% 0.00 in 225 W/m2
16:09 47.8 °F 30.8 °F 30.08 in Calm     51.7% 0.00 in 225 W/m2
16:14 47.6 °F 30.2 °F 30.08 in Calm     50.6% 0.00 in 183 W/m2
16:19 47.5 °F 30.5 °F 30.08 in Calm     51.5% 0.00 in 285 W/m2
16:24 47.3 °F 30 °F 30.08 in Calm     50.8% 0.00 in 280 W/m2
16:29 47.2 °F 29.9 °F 30.08 in Calm     50.8% 0.00 in 259 W/m2
16:34 46.9 °F 30 °F 30.08 in Calm     51.6% 0.00 in 86 W/m2
16:39 46.7 °F 29.6 °F 30.08 in Calm     51.2% 0.00 in 135 W/m2
16:44 46.7 °F 30.3 °F 30.08 in Calm     52.5% 0.00 in 229 W/m2
16:49 47 °F 30.4 °F 30.07 in Calm     52.3% 0.00 in 229 W/m2
16:54 47.2 °F 31.1 °F 30.07 in Calm     53.3% 0.00 in 285 W/m2
16:59 47.4 °F 30.3 °F 30.07 in Calm     51.3% 0.00 in 262 W/m2
17:04 47.4 °F 30.6 °F 30.07 in Calm     51.9% 0.00 in 83 W/m2
17:09 47.5 °F 31.2 °F 30.07 in Calm     52.9% 0.00 in 253 W/m2
17:14 47.6 °F 31.2 °F 30.07 in Calm     52.7% 0.00 in 253 W/m2
17:19 47.7 °F 30.8 °F 30.06 in Calm     51.6% 0.00 in 215 W/m2
17:24 47.6 °F 30.8 °F 30.06 in Calm     51.9% 0.00 in 148 W/m2
17:29 47.7 °F 30.6 °F 30.07 in Calm     51.3% 0.00 in 130 W/m2
17:34 47.7 °F 30.8 °F 30.07 in Calm     51.8% 0.00 in 63 W/m2
17:39 47.6 °F 31.1 °F 30.07 in Calm     52.6% 0.00 in 42 W/m2
17:44 47.4 °F 30.3 °F 30.07 in Calm     51.2% 0.00 in 42 W/m2
17:49 47.4 °F 30.3 °F 30.07 in Calm     51.2% 0.00 in 46 W/m2
17:54 47.6 °F 30.8 °F 30.07 in Calm     51.8% 0.00 in 51 W/m2
17:59 47.7 °F 31.4 °F 30.08 in Calm     53% 0.00 in 56 W/m2
18:04 47.7 °F 32.3 °F 30.08 in Calm     55% 0.00 in 104 W/m2
18:09 47.5 °F 32.4 °F 30.08 in Calm     55.4% 0.00 in 40 W/m2
18:14 47.3 °F 32.2 °F 30.08 in Calm     55.4% 0.00 in 30 W/m2
18:19 47.1 °F 32.1 °F 30.08 in Calm     55.6% 0.00 in 28 W/m2
18:24 46.9 °F 31.8 °F 30.08 in Calm     55.5% 0.00 in 26 W/m2
18:29 46.6 °F 32 °F 30.09 in Calm     56.5% 0.00 in 23 W/m2
18:34 46.1 °F 32.3 °F 30.09 in Calm     58.2% 0.00 in 25 W/m2
18:39 45.7 °F 32.6 °F 30.09 in Calm     60% 0.00 in 25 W/m2
18:44 45.3 °F 33.1 °F 30.09 in Calm     61.9% 0.00 in 23 W/m2
18:49 44.9 °F 33.6 °F 30.09 in Calm     64.5% 0.00 in 21 W/m2
18:54 44.3 °F 34 °F 30.09 in Calm     67.1% 0.00 in 16 W/m2
18:59 43.6 °F 34.1 °F 30.10 in Calm     68.8% 0.00 in 14 W/m2
19:04 43.1 °F 34.3 °F 30.10 in Calm     70.9% 0.00 in 11 W/m2
19:09 42.6 °F 34.2 °F 30.10 in Calm     71.9% 0.00 in 7 W/m2
19:14 42.1 °F 34.2 °F 30.10 in Calm     73.2% 0.00 in 5 W/m2
19:19 41.7 °F 34 °F 30.10 in Calm     74% 0.00 in 0 W/m2
19:24 41.3 °F 33.7 °F 30.10 in Calm     74% 0.00 in 0 W/m2
19:29 41 °F 33.6 °F 30.11 in Calm     74.6% 0.00 in 0 W/m2
19:34 40.8 °F 33.7 °F 30.11 in Calm     75.6% 0.00 in 0 W/m2
19:39 40.3 °F 33.4 °F 30.11 in Calm     76% 0.00 in 0 W/m2
19:44 40 °F 33.1 °F 30.11 in Calm     76.3% 0.00 in 0 W/m2
19:49 39.7 °F 33.1 °F 30.11 in Calm     77% 0.00 in 0 W/m2
19:54 39.4 °F 33.1 °F 30.11 in Calm     77.8% 0.00 in 0 W/m2
19:59 39.1 °F 32.9 °F 30.11 in Calm     78.3% 0.00 in 0 W/m2
20:04 38.8 °F 32.8 °F 30.11 in Calm     79% 0.00 in 0 W/m2
20:09 38.5 °F 32.8 °F 30.11 in Calm     79.9% 0.00 in 0 W/m2
20:14 38.1 °F 32.8 °F 30.12 in Calm     80.9% 0.00 in 0 W/m2
20:19 37.8 °F 32.5 °F 30.12 in Calm     81% 0.00 in 0 W/m2
20:24 37.5 °F 32.6 °F 30.12 in Calm     82.2% 0.00 in 0 W/m2
20:29 37.3 °F 32.6 °F 30.12 in Calm     83% 0.00 in 0 W/m2
20:34 37 °F 32.6 °F 30.12 in Calm     83.7% 0.00 in 0 W/m2
20:39 36.8 °F 32.4 °F 30.12 in Calm     84% 0.00 in 0 W/m2
20:44 36.6 °F 32.3 °F 30.13 in Calm     84.4% 0.00 in 0 W/m2
20:49 36.3 °F 32.2 °F 30.13 in Calm     85% 0.00 in 0 W/m2
20:54 35.9 °F 32.1 °F 30.13 in Calm     86% 0.00 in 0 W/m2
20:59 35.6 °F 32.1 °F 30.14 in Calm     86.7% 0.00 in 0 W/m2
21:04 35.4 °F 31.9 °F 30.14 in Calm     87% 0.00 in 0 W/m2
21:09 35.1 °F 31.8 °F 30.14 in Calm     87.5% 0.00 in 0 W/m2
21:14 34.8 °F 31.4 °F 30.14 in Calm     87.3% 0.00 in 0 W/m2
21:19 34.5 °F 31.3 °F 30.14 in Calm     88% 0.00 in 0 W/m2
21:24 34.4 °F 31.2 °F 30.14 in Calm     88.1% 0.00 in 0 W/m2
21:29 34.3 °F 31.4 °F 30.15 in Calm     89% 0.00 in 0 W/m2
21:34 34.1 °F 31.2 °F 30.15 in Calm     89% 0.00 in 0 W/m2
22:40 31.6 °F 29.6 °F 30.15 in Calm     92% 0.00 in 0 W/m2
23:00 31.1 °F 29.3 °F 30.15 in Calm     93% 0.00 in 0 W/m2
Lisbon, New Hampshire, USA
Compliments of Weather Underground - 4 mb